Happy Valentine's Day! 

Flight Track Log - Related Links

Times and Time Zones

All times are in EDT time to prevent confusion due to time zone crossing. See the SWA1718 flight status page for this flight to view local times or setup timezone preferences in your user account.


Time Position Orientation Groundspeed Altitude Reporting Facility
EDT Latitude Longitude Course Direction KTS MPH feet Rate Location/Type
Thu 06:55:23 PM 35.4200 -101.6683 338° Northwest 242 278 7,800  Level Albuquerque Center
Thu 06:56:25 PM 35.4858 -101.7033 337° Northwest 254 292 11,300 3,484 Climbing Albuquerque Center
Thu 06:57:00 PM 35.7165 -101.9249 338° Northwest  Level FlightAware Approximate
Thu 06:57:27 PM 35.5619 -101.7422 337° Northwest 284 327 15,000  Level Albuquerque Center
Thu 06:58:00 PM 35.8172 -101.9702 342° North  Level FlightAware Approximate
Thu 06:58:29 PM 35.6431 -101.7844 337° Northwest 308 354 18,300  Level Albuquerque Center
Thu 06:59:00 PM 35.9150 -102.0227 342° North  Level FlightAware Approximate
Thu 06:59:31 PM 35.7319 -101.8308 337° Northwest 336 387 21,200  Level Albuquerque Center
Thu 07:00:33 PM 35.8461 -101.8881 338° Northwest 363 418 24,300 2,468 Climbing Albuquerque Center
Thu 07:01:35 PM 35.9461 -101.9417 337° Northwest 387 445 26,300 1,984 Climbing Albuquerque Center
Thu 07:02:37 PM 36.0542 -101.9975 337° Northwest 412 474 28,400 2,032 Climbing Albuquerque Center
Thu 07:03:39 PM 36.1625 -102.0531 338° Northwest 421 484 30,500 2,129 Climbing Albuquerque Center
Thu 07:04:41 PM 36.2708 -102.1100 337° Northwest 422 486 32,800 1,694 Climbing Albuquerque Center
Thu 07:05:43 PM 36.3800 -102.1678 337° Northwest 425 489 34,000 1,548 Climbing Albuquerque Center
Thu 07:06:45 PM 36.5136 -102.2381 337° Northwest 433 498 36,000 968 Climbing Albuquerque Center
Thu 07:07:47 PM 36.6228 -102.2967 337° Northwest 429 494 36,000  Level Albuquerque Center
Thu 07:08:49 PM 36.7319 -102.3556 337° Northwest 428 493 36,000  Level Albuquerque Center
Thu 07:09:51 PM 36.8414 -102.4147 337° Northwest 429 494 36,000  Level Albuquerque Center
Thu 07:10:53 PM 36.9686 -102.4822 337° Northwest 432 497 36,000  Level Albuquerque Center
Thu 07:11:55 PM 37.0814 -102.5431 337° Northwest 432 497 36,000  Level Albuquerque Center
Thu 07:12:57 PM 37.1881 -102.5989 337° Northwest 432 497 36,000  Level Albuquerque Center
Thu 07:13:58 PM 37.2922 -102.6567 336° Northwest 429 494 36,000  Level Albuquerque Center
Thu 07:15:00 PM 37.4158 -102.7242 337° Northwest 432 497 36,000  Level Albuquerque Center
Thu 07:15:17 PM 37.4503 -102.7425 337° Northwest 434 499 36,000  Level Denver Center
Thu 07:16:19 PM 37.5581 -102.7919 340° North 433 498 36,000  Level Denver Center
Thu 07:17:21 PM 37.6919 -102.8342 346° North 443 510 36,000  Level Denver Center
Thu 07:18:23 PM 37.8050 -102.8694 346° North 440 506 36,000  Level Denver Center
Thu 07:19:25 PM 37.9372 -102.9117 346° North 440 506 36,000  Level Denver Center
Thu 07:20:27 PM 38.0472 -102.9456 346° North 439 505 36,000  Level Denver Center
Thu 07:21:28 PM 38.1772 -102.9878 346° North 432 497 36,000  Level Denver Center
Thu 07:22:30 PM 38.2889 -103.0231 346° North 430 495 36,000  Level Denver Center
Thu 07:23:32 PM 38.4192 -103.0650 346° North 430 495 36,000  Level Denver Center
Thu 07:24:34 PM 38.5303 -103.1028 345° North 430 495 36,000 -145 Level Denver Center
Thu 07:25:36 PM 38.6142 -103.2075 316° Northwest 419 482 35,700 -634 Descending Denver Center
Thu 07:26:37 PM 38.6917 -103.3167 312° West 413 475 34,700 -878 Descending Denver Center
Thu 07:27:39 PM 38.7683 -103.4244 312° West 407 468 33,900 -1,887 Descending Denver Center
Thu 07:28:41 PM 38.8444 -103.5328 312° West 406 467 30,800 -2,952 Descending Denver Center
Thu 07:29:43 PM 38.9358 -103.6575 313° West 407 468 27,800 -2,613 Descending Denver Center
Thu 07:30:45 PM 39.0081 -103.7603 312° West 389 448 25,400 -2,293 Descending Denver Center
Thu 07:31:46 PM 39.0756 -103.8592 311° West 369 425 23,100 -2,244 Descending Denver Center
Thu 07:32:48 PM 39.1411 -103.9547 312° West 357 411 20,800 -2,032 Descending Denver Center
Thu 07:33:50 PM 39.2044 -104.0450 312° West 343 395 18,900 -1,742 Descending Denver Center
Thu 07:34:52 PM 39.2669 -104.1417 310° West 326 375 17,200 -1,306 Descending Denver Center
Thu 07:35:54 PM 39.3172 -104.2208 309° West 289 333 16,200 -1,220 Descending Denver Center
Thu 07:36:55 PM 39.3611 -104.2978 306° West 271 312 14,700 -1,561 Descending Denver Center
Thu 07:37:57 PM 39.4108 -104.3728 311° West 260 299 13,000 -968 Descending Denver Center
Thu 07:38:59 PM 39.4497 -104.4372 308° West 217 250 12,700 -823 Descending Denver Center
Thu 07:40:01 PM 39.4897 -104.5019 309° West 214 246 11,300 -968 Descending Denver Center
Thu 07:41:03 PM 39.5300 -104.5594 312° West 220 253 10,700 -919 Descending Denver Center
Thu 07:42:05 PM 39.5856 -104.5900 337° Northwest 218 251 9,400 -1,210 Descending Denver Center
Thu 07:43:07 PM 39.6453 -104.6250 336° Northwest 213 245 8,200 -1,161 Descending Denver Center
Thu 07:44:09 PM 39.7011 -104.6600 334° Northwest 222 255 7,000 -677 Descending Denver Center
Thu 07:45:11 PM 39.7572 -104.6617 359° North 176 203 6,800 -435 Descending Denver Center
Thu 07:46:13 PM 39.7961 -104.6608 North 144 166 6,100 -726 Descending Denver Center
Thu 07:47:15 PM 39.8358 -104.6614 359° North 140 161 5,300 -774 Descending Denver Center
Thu 07:49:00 PM 39.8500 -104.6667 North  Level FlightAware Approximate
Thu 07:56:00 PM 39.8617 -104.6732 North  Level Estimated
Thu 07:57:00 PM 39.8617 -104.6732 North  Level Estimated

Login

Don't have an account? Register now (free) for customized features, flight alerts, and more!